sensor_id;sensor_type;location;lat;lon;timestamp;pressure;altitude;pressure_sealevel;temperature;humidity
68863;BME280;73819;51.460;-1.012;2023-11-22T00:02:02;102664.86;;;23.24;47.21
68863;BME280;73819;51.460;-1.012;2023-11-22T00:04:30;102671.29;;;23.27;47.04
68863;BME280;73819;51.460;-1.012;2023-11-22T00:06:56;102665.73;;;23.26;47.04
68863;BME280;73819;51.460;-1.012;2023-11-22T00:09:23;102670.48;;;23.25;47.08
68863;BME280;73819;51.460;-1.012;2023-11-22T00:11:50;102675.25;;;23.46;46.77
68863;BME280;73819;51.460;-1.012;2023-11-22T00:14:17;102678.56;;;23.13;46.90
68863;BME280;73819;51.460;-1.012;2023-11-22T00:16:43;102679.00;;;23.33;46.81
68863;BME280;73819;51.460;-1.012;2023-11-22T00:19:10;102676.45;;;23.29;47.08
68863;BME280;73819;51.460;-1.012;2023-11-22T00:21:37;102673.65;;;23.16;46.83
68863;BME280;73819;51.460;-1.012;2023-11-22T00:24:04;102676.60;;;23.20;47.15
68863;BME280;73819;51.460;-1.012;2023-11-22T00:26:31;102679.14;;;23.25;46.82
68863;BME280;73819;51.460;-1.012;2023-11-22T00:28:58;102677.41;;;23.34;46.63
68863;BME280;73819;51.460;-1.012;2023-11-22T00:31:25;102673.33;;;23.08;46.78
68863;BME280;73819;51.460;-1.012;2023-11-22T00:33:52;102669.76;;;22.97;46.89
68863;BME280;73819;51.460;-1.012;2023-11-22T00:36:19;102666.50;;;23.24;46.93
68863;BME280;73819;51.460;-1.012;2023-11-22T00:38:46;102666.20;;;22.98;46.45
68863;BME280;73819;51.460;-1.012;2023-11-22T00:41:12;102667.13;;;23.13;46.28
68863;BME280;73819;51.460;-1.012;2023-11-22T00:43:39;102664.64;;;23.15;46.41
68863;BME280;73819;51.460;-1.012;2023-11-22T00:46:07;102664.86;;;22.89;46.58
68863;BME280;73819;51.460;-1.012;2023-11-22T00:48:34;102664.24;;;22.86;46.13
68863;BME280;73819;51.460;-1.012;2023-11-22T00:51:01;102664.93;;;23.33;46.19
68863;BME280;73819;51.460;-1.012;2023-11-22T00:53:33;102668.75;;;23.49;45.57
68863;BME280;73819;51.460;-1.012;2023-11-22T00:56:05;102672.58;;;23.57;45.94
68863;BME280;73819;51.460;-1.012;2023-11-22T00:58:38;102671.65;;;23.31;46.01
68863;BME280;73819;51.460;-1.012;2023-11-22T01:01:04;102668.23;;;23.25;45.69
68863;BME280;73819;51.460;-1.012;2023-11-22T01:03:32;102667.95;;;23.35;45.76
68863;BME280;73819;51.460;-1.012;2023-11-22T01:06:00;102671.54;;;22.94;45.72
68863;BME280;73819;51.460;-1.012;2023-11-22T01:08:27;102672.99;;;23.07;45.84
68863;BME280;73819;51.460;-1.012;2023-11-22T01:10:59;102671.33;;;23.14;45.50
68863;BME280;73819;51.460;-1.012;2023-11-22T01:13:26;102674.03;;;23.01;45.52
68863;BME280;73819;51.460;-1.012;2023-11-22T01:15:53;102672.47;;;23.35;44.57
68863;BME280;73819;51.460;-1.012;2023-11-22T01:18:20;102671.02;;;23.39;44.88
68863;BME280;73819;51.460;-1.012;2023-11-22T01:20:48;102678.53;;;23.29;45.07
68863;BME280;73819;51.460;-1.012;2023-11-22T01:23:15;102683.19;;;23.31;45.36
68863;BME280;73819;51.460;-1.012;2023-11-22T01:25:41;102680.35;;;22.87;45.33
68863;BME280;73819;51.460;-1.012;2023-11-22T01:28:08;102675.60;;;22.89;45.04
68863;BME280;73819;51.460;-1.012;2023-11-22T01:30:35;102671.49;;;22.92;44.97
68863;BME280;73819;51.460;-1.012;2023-11-22T01:33:02;102672.97;;;23.06;45.19
68863;BME280;73819;51.460;-1.012;2023-11-22T01:35:28;102674.55;;;22.96;45.00
68863;BME280;73819;51.460;-1.012;2023-11-22T01:37:55;102674.20;;;23.04;45.64
68863;BME280;73819;51.460;-1.012;2023-11-22T01:40:22;102672.03;;;22.72;45.31
68863;BME280;73819;51.460;-1.012;2023-11-22T01:42:49;102669.66;;;22.82;45.30
68863;BME280;73819;51.460;-1.012;2023-11-22T01:45:16;102667.89;;;23.28;44.89
68863;BME280;73819;51.460;-1.012;2023-11-22T01:47:44;102668.88;;;22.84;45.27
68863;BME280;73819;51.460;-1.012;2023-11-22T01:50:10;102662.89;;;22.99;45.27
68863;BME280;73819;51.460;-1.012;2023-11-22T01:52:38;102664.09;;;23.11;45.16
68863;BME280;73819;51.460;-1.012;2023-11-22T01:55:07;102668.86;;;23.18;45.27
68863;BME280;73819;51.460;-1.012;2023-11-22T01:57:36;102666.93;;;23.13;45.28
68863;BME280;73819;51.460;-1.012;2023-11-22T02:00:04;102668.80;;;22.98;45.09
68863;BME280;73819;51.460;-1.012;2023-11-22T02:02:33;102669.58;;;23.18;45.19
68863;BME280;73819;51.460;-1.012;2023-11-22T02:05:01;102674.64;;;23.10;45.24
68863;BME280;73819;51.460;-1.012;2023-11-22T02:07:29;102676.92;;;23.08;45.22
68863;BME280;73819;51.460;-1.012;2023-11-22T02:09:57;102675.70;;;23.02;45.32
68863;BME280;73819;51.460;-1.012;2023-11-22T02:12:24;102675.57;;;22.68;45.07
68863;BME280;73819;51.460;-1.012;2023-11-22T02:14:51;102681.28;;;22.96;44.88
68863;BME280;73819;51.460;-1.012;2023-11-22T02:17:18;102681.26;;;22.78;44.83
68863;BME280;73819;51.460;-1.012;2023-11-22T02:19:44;102677.06;;;23.28;44.76
68863;BME280;73819;51.460;-1.012;2023-11-22T02:22:11;102675.53;;;23.02;44.87
68863;BME280;73819;51.460;-1.012;2023-11-22T02:24:38;102674.91;;;22.71;44.91
68863;BME280;73819;51.460;-1.012;2023-11-22T02:27:04;102672.99;;;22.68;44.80
68863;BME280;73819;51.460;-1.012;2023-11-22T02:29:31;102674.86;;;23.10;44.89
68863;BME280;73819;51.460;-1.012;2023-11-22T02:31:59;102683.18;;;22.86;44.99
68863;BME280;73819;51.460;-1.012;2023-11-22T02:34:26;102683.98;;;23.02;45.03
68863;BME280;73819;51.460;-1.012;2023-11-22T02:36:52;102687.37;;;23.07;44.91
68863;BME280;73819;51.460;-1.012;2023-11-22T02:39:19;102684.53;;;23.03;45.06
68863;BME280;73819;51.460;-1.012;2023-11-22T02:41:47;102677.35;;;22.81;45.13
68863;BME280;73819;51.460;-1.012;2023-11-22T02:44:14;102677.70;;;22.97;44.84
68863;BME280;73819;51.460;-1.012;2023-11-22T02:46:40;102678.98;;;22.73;45.07
68863;BME280;73819;51.460;-1.012;2023-11-22T02:49:07;102678.26;;;22.82;44.97
68863;BME280;73819;51.460;-1.012;2023-11-22T02:51:34;102681.04;;;22.81;44.74
68863;BME280;73819;51.460;-1.012;2023-11-22T02:54:00;102687.74;;;23.00;44.75
68863;BME280;73819;51.460;-1.012;2023-11-22T02:56:27;102684.03;;;22.99;44.87
68863;BME280;73819;51.460;-1.012;2023-11-22T02:58:54;102685.05;;;22.74;44.99
68863;BME280;73819;51.460;-1.012;2023-11-22T03:01:21;102679.26;;;22.88;44.81
68863;BME280;73819;51.460;-1.012;2023-11-22T03:03:47;102675.77;;;22.91;44.66
68863;BME280;73819;51.460;-1.012;2023-11-22T03:06:14;102672.94;;;22.77;44.93
68863;BME280;73819;51.460;-1.012;2023-11-22T03:08:41;102663.80;;;23.11;44.78
68863;BME280;73819;51.460;-1.012;2023-11-22T03:11:08;102658.83;;;23.05;44.77
68863;BME280;73819;51.460;-1.012;2023-11-22T03:13:34;102654.67;;;23.08;44.70
68863;BME280;73819;51.460;-1.012;2023-11-22T03:16:01;102659.90;;;23.01;44.81
68863;BME280;73819;51.460;-1.012;2023-11-22T03:18:28;102670.85;;;22.91;44.66
68863;BME280;73819;51.460;-1.012;2023-11-22T03:20:55;102672.51;;;23.04;44.71
68863;BME280;73819;51.460;-1.012;2023-11-22T03:23:21;102675.99;;;22.58;44.45
68863;BME280;73819;51.460;-1.012;2023-11-22T03:25:48;102679.86;;;23.06;44.57
68863;BME280;73819;51.460;-1.012;2023-11-22T03:28:15;102673.67;;;22.95;44.55
68863;BME280;73819;51.460;-1.012;2023-11-22T03:30:42;102666.47;;;22.75;44.76
68863;BME280;73819;51.460;-1.012;2023-11-22T03:33:09;102671.58;;;22.98;44.65
68863;BME280;73819;51.460;-1.012;2023-11-22T03:35:35;102679.76;;;22.72;44.70
68863;BME280;73819;51.460;-1.012;2023-11-22T03:38:03;102691.13;;;22.95;44.83
68863;BME280;73819;51.460;-1.012;2023-11-22T03:40:30;102695.13;;;22.83;44.70
68863;BME280;73819;51.460;-1.012;2023-11-22T03:42:56;102692.93;;;23.10;44.65
68863;BME280;73819;51.460;-1.012;2023-11-22T03:45:23;102689.67;;;22.97;44.82
68863;BME280;73819;51.460;-1.012;2023-11-22T03:47:50;102695.53;;;23.05;44.68
68863;BME280;73819;51.460;-1.012;2023-11-22T03:50:17;102703.88;;;22.77;44.83
68863;BME280;73819;51.460;-1.012;2023-11-22T03:52:44;102711.54;;;22.77;44.82
68863;BME280;73819;51.460;-1.012;2023-11-22T03:55:11;102716.87;;;23.00;44.82
68863;BME280;73819;51.460;-1.012;2023-11-22T03:57:39;102707.22;;;22.70;44.91
68863;BME280;73819;51.460;-1.012;2023-11-22T04:00:06;102698.09;;;23.00;44.82
68863;BME280;73819;51.460;-1.012;2023-11-22T04:02:34;102694.05;;;23.02;44.75
68863;BME280;73819;51.460;-1.012;2023-11-22T04:05:00;102691.01;;;22.77;44.76
68863;BME280;73819;51.460;-1.012;2023-11-22T04:07:27;102688.42;;;22.94;44.80
68863;BME280;73819;51.460;-1.012;2023-11-22T04:09:54;102685.89;;;22.96;44.79
68863;BME280;73819;51.460;-1.012;2023-11-22T04:12:21;102680.96;;;23.02;44.75
68863;BME280;73819;51.460;-1.012;2023-11-22T04:14:47;102684.16;;;22.66;44.88
68863;BME280;73819;51.460;-1.012;2023-11-22T04:17:14;102687.63;;;23.09;44.66
68863;BME280;73819;51.460;-1.012;2023-11-22T04:19:41;102691.89;;;22.96;44.86
68863;BME280;73819;51.460;-1.012;2023-11-22T04:22:08;102694.78;;;22.94;44.90
68863;BME280;73819;51.460;-1.012;2023-11-22T04:24:35;102695.10;;;22.73;44.90
68863;BME280;73819;51.460;-1.012;2023-11-22T04:27:02;102702.22;;;22.89;44.95
68863;BME280;73819;51.460;-1.012;2023-11-22T04:29:30;102709.32;;;22.97;44.89
68863;BME280;73819;51.460;-1.012;2023-11-22T04:31:57;102712.10;;;23.06;44.75
68863;BME280;73819;51.460;-1.012;2023-11-22T04:34:24;102717.27;;;22.61;44.75
68863;BME280;73819;51.460;-1.012;2023-11-22T04:36:51;102717.89;;;22.98;44.83
68863;BME280;73819;51.460;-1.012;2023-11-22T04:39:18;102713.88;;;22.92;44.90
68863;BME280;73819;51.460;-1.012;2023-11-22T04:41:45;102704.53;;;22.48;44.89
68863;BME280;73819;51.460;-1.012;2023-11-22T04:44:12;102694.88;;;22.71;44.84
68863;BME280;73819;51.460;-1.012;2023-11-22T04:46:39;102689.61;;;22.83;44.71
68863;BME280;73819;51.460;-1.012;2023-11-22T04:49:06;102695.63;;;23.07;44.64
68863;BME280;73819;51.460;-1.012;2023-11-22T04:51:33;102689.50;;;22.79;44.73
68863;BME280;73819;51.460;-1.012;2023-11-22T04:54:01;102697.30;;;22.63;44.63
68863;BME280;73819;51.460;-1.012;2023-11-22T04:56:28;102703.37;;;23.07;44.67
68863;BME280;73819;51.460;-1.012;2023-11-22T04:58:55;102704.43;;;22.90;44.87
68863;BME280;73819;51.460;-1.012;2023-11-22T05:01:22;102696.11;;;22.99;44.80
68863;BME280;73819;51.460;-1.012;2023-11-22T05:03:49;102688.80;;;22.89;44.91
68863;BME280;73819;51.460;-1.012;2023-11-22T05:06:16;102693.17;;;22.94;44.83
68863;BME280;73819;51.460;-1.012;2023-11-22T05:08:43;102686.64;;;22.72;44.81
68863;BME280;73819;51.460;-1.012;2023-11-22T05:11:09;102688.98;;;22.83;44.63
68863;BME280;73819;51.460;-1.012;2023-11-22T05:13:36;102693.93;;;23.03;44.67
68863;BME280;73819;51.460;-1.012;2023-11-22T05:16:04;102698.70;;;22.93;44.80
68863;BME280;73819;51.460;-1.012;2023-11-22T05:18:31;102694.80;;;22.96;44.75
68863;BME280;73819;51.460;-1.012;2023-11-22T05:20:58;102698.70;;;22.91;44.81
68863;BME280;73819;51.460;-1.012;2023-11-22T05:23:25;102704.82;;;23.03;44.66
68863;BME280;73819;51.460;-1.012;2023-11-22T05:25:53;102704.81;;;22.74;44.70
68863;BME280;73819;51.460;-1.012;2023-11-22T05:28:20;102701.42;;;22.79;44.68
68863;BME280;73819;51.460;-1.012;2023-11-22T05:30:48;102690.56;;;22.76;44.92
68863;BME280;73819;51.460;-1.012;2023-11-22T05:33:15;102687.33;;;22.95;44.72
68863;BME280;73819;51.460;-1.012;2023-11-22T05:35:42;102692.22;;;22.90;44.76
68863;BME280;73819;51.460;-1.012;2023-11-22T05:38:09;102697.17;;;22.95;44.64
68863;BME280;73819;51.460;-1.012;2023-11-22T05:40:36;102697.87;;;22.92;44.73
68863;BME280;73819;51.460;-1.012;2023-11-22T05:43:02;102708.25;;;22.50;44.70
68863;BME280;73819;51.460;-1.012;2023-11-22T05:45:29;102706.39;;;22.73;44.67
68863;BME280;73819;51.460;-1.012;2023-11-22T05:47:56;102697.51;;;22.73;44.69
68863;BME280;73819;51.460;-1.012;2023-11-22T05:50:23;102696.96;;;22.81;44.83
68863;BME280;73819;51.460;-1.012;2023-11-22T05:52:50;102693.07;;;22.92;44.69
68863;BME280;73819;51.460;-1.012;2023-11-22T05:55:17;102691.52;;;22.73;44.63
68863;BME280;73819;51.460;-1.012;2023-11-22T05:57:44;102692.36;;;22.58;44.56
68863;BME280;73819;51.460;-1.012;2023-11-22T06:00:13;102687.48;;;22.71;44.62
68863;BME280;73819;51.460;-1.012;2023-11-22T06:02:40;102689.18;;;22.73;44.63
68863;BME280;73819;51.460;-1.012;2023-11-22T06:05:07;102691.08;;;22.84;44.73
68863;BME280;73819;51.460;-1.012;2023-11-22T06:07:35;102688.21;;;22.66;44.68
68863;BME280;73819;51.460;-1.012;2023-11-22T06:10:03;102684.63;;;22.86;44.69
68863;BME280;73819;51.460;-1.012;2023-11-22T06:12:30;102674.84;;;22.74;44.55
68863;BME280;73819;51.460;-1.012;2023-11-22T06:14:58;102676.08;;;22.99;44.49
68863;BME280;73819;51.460;-1.012;2023-11-22T06:17:24;102667.88;;;22.65;44.35
68863;BME280;73819;51.460;-1.012;2023-11-22T06:19:51;102666.59;;;22.73;44.23
68863;BME280;73819;51.460;-1.012;2023-11-22T06:22:18;102659.35;;;23.09;44.31
68863;BME280;73819;51.460;-1.012;2023-11-22T06:24:45;102662.54;;;22.83;44.38
68863;BME280;73819;51.460;-1.012;2023-11-22T06:27:12;102662.27;;;22.95;44.24
68863;BME280;73819;51.460;-1.012;2023-11-22T06:29:40;102662.34;;;22.69;44.21
68863;BME280;73819;51.460;-1.012;2023-11-22T06:32:07;102673.46;;;23.19;44.18
68863;BME280;73819;51.460;-1.012;2023-11-22T06:34:34;102677.30;;;22.99;44.39
68863;BME280;73819;51.460;-1.012;2023-11-22T06:37:01;102680.34;;;22.58;44.35
68863;BME280;73819;51.460;-1.012;2023-11-22T06:39:28;102688.69;;;22.85;44.58
68863;BME280;73819;51.460;-1.012;2023-11-22T06:41:54;102687.99;;;22.90;44.55
68863;BME280;73819;51.460;-1.012;2023-11-22T06:44:21;102694.15;;;23.08;44.29
68863;BME280;73819;51.460;-1.012;2023-11-22T06:46:48;102691.41;;;22.99;44.33
68863;BME280;73819;51.460;-1.012;2023-11-22T06:49:15;102686.02;;;22.86;44.47
68863;BME280;73819;51.460;-1.012;2023-11-22T06:51:41;102691.84;;;23.00;44.32
68863;BME280;73819;51.460;-1.012;2023-11-22T06:54:08;102690.18;;;22.95;44.32
68863;BME280;73819;51.460;-1.012;2023-11-22T06:56:35;102690.96;;;23.05;44.19
68863;BME280;73819;51.460;-1.012;2023-11-22T06:59:02;102696.97;;;22.87;44.26
68863;BME280;73819;51.460;-1.012;2023-11-22T07:01:28;102700.31;;;22.83;44.26
68863;BME280;73819;51.460;-1.012;2023-11-22T07:03:55;102701.06;;;22.88;44.33
68863;BME280;73819;51.460;-1.012;2023-11-22T07:06:22;102698.01;;;22.43;44.32
68863;BME280;73819;51.460;-1.012;2023-11-22T07:08:49;102707.04;;;22.66;44.34
68863;BME280;73819;51.460;-1.012;2023-11-22T07:11:21;102705.21;;;23.11;44.35
68863;BME280;73819;51.460;-1.012;2023-11-22T07:13:48;102704.36;;;22.86;44.32
68863;BME280;73819;51.460;-1.012;2023-11-22T07:16:15;102706.38;;;22.90;44.24
68863;BME280;73819;51.460;-1.012;2023-11-22T07:18:42;102698.55;;;22.75;44.11
68863;BME280;73819;51.460;-1.012;2023-11-22T07:21:09;102693.96;;;22.94;44.15
68863;BME280;73819;51.460;-1.012;2023-11-22T07:23:35;102688.63;;;22.96;44.09
68863;BME280;73819;51.460;-1.012;2023-11-22T07:26:02;102692.13;;;22.64;44.26
68863;BME280;73819;51.460;-1.012;2023-11-22T07:28:30;102701.16;;;22.85;44.26
68863;BME280;73819;51.460;-1.012;2023-11-22T07:30:56;102712.40;;;22.79;44.28
68863;BME280;73819;51.460;-1.012;2023-11-22T07:33:23;102724.00;;;22.90;44.17
68863;BME280;73819;51.460;-1.012;2023-11-22T07:35:50;102732.37;;;22.77;44.28
68863;BME280;73819;51.460;-1.012;2023-11-22T07:38:17;102727.71;;;22.89;44.17
68863;BME280;73819;51.460;-1.012;2023-11-22T07:40:43;102729.52;;;22.81;44.26
68863;BME280;73819;51.460;-1.012;2023-11-22T07:43:10;102732.70;;;22.89;44.13
68863;BME280;73819;51.460;-1.012;2023-11-22T07:45:37;102734.98;;;21.76;44.09
68863;BME280;73819;51.460;-1.012;2023-11-22T07:48:04;102733.02;;;22.09;46.12
68863;BME280;73819;51.460;-1.012;2023-11-22T07:50:31;102733.13;;;21.95;46.35
68863;BME280;73819;51.460;-1.012;2023-11-22T07:52:58;102741.80;;;22.09;46.78
68863;BME280;73819;51.460;-1.012;2023-11-22T07:55:25;102747.88;;;21.93;46.46
68863;BME280;73819;51.460;-1.012;2023-11-22T07:57:51;102744.67;;;21.60;47.02
68863;BME280;73819;51.460;-1.012;2023-11-22T08:00:19;102745.07;;;22.21;46.76
68863;BME280;73819;51.460;-1.012;2023-11-22T08:02:46;102757.05;;;22.28;46.49
68863;BME280;73819;51.460;-1.012;2023-11-22T08:05:13;102769.18;;;22.42;46.30
68863;BME280;73819;51.460;-1.012;2023-11-22T08:07:40;102769.95;;;22.45;46.29
68863;BME280;73819;51.460;-1.012;2023-11-22T08:10:09;102763.91;;;22.63;45.93
68863;BME280;73819;51.460;-1.012;2023-11-22T08:12:36;102758.16;;;22.62;47.03
68863;BME280;73819;51.460;-1.012;2023-11-22T08:15:03;102754.37;;;22.18;46.80
68863;BME280;73819;51.460;-1.012;2023-11-22T08:17:31;102757.55;;;22.76;50.91
68863;BME280;73819;51.460;-1.012;2023-11-22T08:19:58;102756.75;;;22.79;49.89
68863;BME280;73819;51.460;-1.012;2023-11-22T08:22:25;102760.97;;;22.78;50.02
68863;BME280;73819;51.460;-1.012;2023-11-22T08:24:53;102758.71;;;22.67;53.18
68863;BME280;73819;51.460;-1.012;2023-11-22T08:27:19;102744.34;;;22.73;52.01
68863;BME280;73819;51.460;-1.012;2023-11-22T08:29:47;102728.18;;;22.77;51.91
68863;BME280;73819;51.460;-1.012;2023-11-22T08:32:14;102742.28;;;22.52;50.97
68863;BME280;73819;51.460;-1.012;2023-11-22T08:34:41;102745.70;;;22.70;50.63
68863;BME280;73819;51.460;-1.012;2023-11-22T08:37:08;102747.35;;;22.44;51.20
68863;BME280;73819;51.460;-1.012;2023-11-22T08:39:35;102745.17;;;22.86;50.67
68863;BME280;73819;51.460;-1.012;2023-11-22T08:42:02;102751.73;;;22.87;50.85
68863;BME280;73819;51.460;-1.012;2023-11-22T08:44:29;102737.31;;;22.85;50.48
68863;BME280;73819;51.460;-1.012;2023-11-22T08:46:56;102731.51;;;22.81;49.72
68863;BME280;73819;51.460;-1.012;2023-11-22T08:49:23;102726.07;;;22.92;49.63
68863;BME280;73819;51.460;-1.012;2023-11-22T08:51:51;102731.76;;;22.98;49.65
68863;BME280;73819;51.460;-1.012;2023-11-22T08:54:18;102730.61;;;22.75;49.68
68863;BME280;73819;51.460;-1.012;2023-11-22T08:56:45;102721.93;;;23.00;49.71
68863;BME280;73819;51.460;-1.012;2023-11-22T08:59:13;102717.62;;;22.72;48.84
68863;BME280;73819;51.460;-1.012;2023-11-22T09:01:40;102722.64;;;22.54;47.67
68863;BME280;73819;51.460;-1.012;2023-11-22T09:04:07;102724.91;;;22.56;47.25
68863;BME280;73819;51.460;-1.012;2023-11-22T09:06:34;102721.97;;;22.42;47.71
68863;BME280;73819;51.460;-1.012;2023-11-22T09:09:01;102713.13;;;22.85;47.36
68863;BME280;73819;51.460;-1.012;2023-11-22T09:11:29;102709.25;;;22.86;48.60
68863;BME280;73819;51.460;-1.012;2023-11-22T09:13:56;102702.04;;;22.81;48.89
68863;BME280;73819;51.460;-1.012;2023-11-22T09:16:23;102706.30;;;22.59;48.78
68863;BME280;73819;51.460;-1.012;2023-11-22T09:18:51;102710.86;;;22.45;48.78
68863;BME280;73819;51.460;-1.012;2023-11-22T09:21:18;102704.83;;;23.03;48.49
68863;BME280;73819;51.460;-1.012;2023-11-22T09:23:46;102701.66;;;22.83;48.93
68863;BME280;73819;51.460;-1.012;2023-11-22T09:26:13;102705.02;;;22.88;48.82
68863;BME280;73819;51.460;-1.012;2023-11-22T09:28:40;102699.23;;;22.78;48.50
68863;BME280;73819;51.460;-1.012;2023-11-22T09:31:06;102694.32;;;22.84;48.89
68863;BME280;73819;51.460;-1.012;2023-11-22T09:33:34;102690.98;;;22.77;48.75
68863;BME280;73819;51.460;-1.012;2023-11-22T09:36:01;102688.64;;;22.72;48.61
68863;BME280;73819;51.460;-1.012;2023-11-22T09:38:28;102679.82;;;22.56;48.54
68863;BME280;73819;51.460;-1.012;2023-11-22T09:40:56;102680.01;;;22.85;48.54
68863;BME280;73819;51.460;-1.012;2023-11-22T09:43:23;102678.18;;;22.94;48.64
68863;BME280;73819;51.460;-1.012;2023-11-22T09:45:50;102679.11;;;22.82;48.67
68863;BME280;73819;51.460;-1.012;2023-11-22T09:48:18;102679.40;;;22.81;48.70
68863;BME280;73819;51.460;-1.012;2023-11-22T09:50:53;102679.49;;;22.58;47.95
68863;BME280;73819;51.460;-1.012;2023-11-22T09:53:28;102673.69;;;22.28;48.26
68863;BME280;73819;51.460;-1.012;2023-11-22T09:55:58;102679.39;;;22.93;48.17
68863;BME280;73819;51.460;-1.012;2023-11-22T09:58:29;102690.16;;;22.60;47.69
68863;BME280;73819;51.460;-1.012;2023-11-22T10:00:57;102698.30;;;22.40;47.74
68863;BME280;73819;51.460;-1.012;2023-11-22T10:03:27;102704.99;;;22.74;47.53
68863;BME280;73819;51.460;-1.012;2023-11-22T10:05:56;102701.69;;;22.50;47.36
68863;BME280;73819;51.460;-1.012;2023-11-22T10:08:23;102702.52;;;22.78;47.16
68863;BME280;73819;51.460;-1.012;2023-11-22T10:10:50;102708.79;;;22.56;47.18
68863;BME280;73819;51.460;-1.012;2023-11-22T10:13:18;102708.39;;;22.56;46.56
68863;BME280;73819;51.460;-1.012;2023-11-22T10:15:45;102706.22;;;22.62;46.96
68863;BME280;73819;51.460;-1.012;2023-11-22T10:18:12;102691.59;;;22.81;46.86
68863;BME280;73819;51.460;-1.012;2023-11-22T10:20:41;102697.29;;;22.55;46.89
68863;BME280;73819;51.460;-1.012;2023-11-22T10:23:09;102705.12;;;22.57;46.40
68863;BME280;73819;51.460;-1.012;2023-11-22T10:25:36;102712.81;;;22.84;46.52
68863;BME280;73819;51.460;-1.012;2023-11-22T10:28:03;102716.29;;;22.78;46.60
68863;BME280;73819;51.460;-1.012;2023-11-22T10:30:32;102709.15;;;22.49;46.60
68863;BME280;73819;51.460;-1.012;2023-11-22T10:32:59;102705.85;;;22.77;46.51
68863;BME280;73819;51.460;-1.012;2023-11-22T10:35:27;102699.49;;;22.71;46.53
68863;BME280;73819;51.460;-1.012;2023-11-22T10:37:53;102692.69;;;22.67;46.15
68863;BME280;73819;51.460;-1.012;2023-11-22T10:40:20;102685.38;;;22.46;46.50
68863;BME280;73819;51.460;-1.012;2023-11-22T10:42:48;102685.35;;;22.54;46.57
68863;BME280;73819;51.460;-1.012;2023-11-22T10:45:17;102690.07;;;22.52;46.82
68863;BME280;73819;51.460;-1.012;2023-11-22T10:47:46;102696.32;;;22.70;46.70
68863;BME280;73819;51.460;-1.012;2023-11-22T10:50:12;102702.84;;;22.73;46.44
68863;BME280;73819;51.460;-1.012;2023-11-22T10:52:41;102711.19;;;22.97;46.23
68863;BME280;73819;51.460;-1.012;2023-11-22T10:55:11;102712.19;;;22.67;46.22
68863;BME280;73819;51.460;-1.012;2023-11-22T10:57:44;102694.41;;;22.82;46.52
68863;BME280;73819;51.460;-1.012;2023-11-22T11:00:12;102682.65;;;22.71;47.07
68863;BME280;73819;51.460;-1.012;2023-11-22T11:02:44;102676.37;;;22.74;47.54
68863;BME280;73819;51.460;-1.012;2023-11-22T11:05:15;102672.44;;;22.71;46.96
68863;BME280;73819;51.460;-1.012;2023-11-22T11:07:48;102674.98;;;22.59;46.79
68863;BME280;73819;51.460;-1.012;2023-11-22T11:10:15;102661.21;;;22.76;46.74
68863;BME280;73819;51.460;-1.012;2023-11-22T11:12:45;102653.73;;;22.76;46.61
68863;BME280;73819;51.460;-1.012;2023-11-22T11:15:13;102651.85;;;22.85;46.70
68863;BME280;73819;51.460;-1.012;2023-11-22T11:17:41;102661.29;;;22.85;47.25
68863;BME280;73819;51.460;-1.012;2023-11-22T11:20:10;102662.58;;;22.51;46.63
68863;BME280;73819;51.460;-1.012;2023-11-22T11:22:38;102653.02;;;22.71;47.15
68863;BME280;73819;51.460;-1.012;2023-11-22T11:25:06;102644.90;;;22.55;46.89
68863;BME280;73819;51.460;-1.012;2023-11-22T11:27:33;102635.82;;;22.82;46.95
68863;BME280;73819;51.460;-1.012;2023-11-22T11:30:01;102630.70;;;22.59;47.26
68863;BME280;73819;51.460;-1.012;2023-11-22T11:32:32;102627.54;;;23.01;47.56
68863;BME280;73819;51.460;-1.012;2023-11-22T11:35:00;102612.82;;;22.75;47.15
68863;BME280;73819;51.460;-1.012;2023-11-22T11:37:29;102605.56;;;22.82;47.37
68863;BME280;73819;51.460;-1.012;2023-11-22T11:39:58;102604.20;;;22.63;47.53
68863;BME280;73819;51.460;-1.012;2023-11-22T11:42:25;102608.15;;;22.96;47.65
68863;BME280;73819;51.460;-1.012;2023-11-22T11:45:04;102606.91;;;22.84;46.57
68863;BME280;73819;51.460;-1.012;2023-11-22T11:47:32;102606.36;;;22.87;46.90
68863;BME280;73819;51.460;-1.012;2023-11-22T11:49:59;102603.26;;;22.97;47.31
68863;BME280;73819;51.460;-1.012;2023-11-22T11:52:26;102583.53;;;22.84;46.72
68863;BME280;73819;51.460;-1.012;2023-11-22T11:54:53;102561.17;;;22.91;47.04
68863;BME280;73819;51.460;-1.012;2023-11-22T11:57:21;102539.58;;;23.06;47.17
68863;BME280;73819;51.460;-1.012;2023-11-22T11:59:48;102543.90;;;22.63;46.67
68863;BME280;73819;51.460;-1.012;2023-11-22T12:02:16;102564.89;;;21.75;47.66
68863;BME280;73819;51.460;-1.012;2023-11-22T12:04:44;102584.76;;;22.53;47.35
68863;BME280;73819;51.460;-1.012;2023-11-22T12:07:11;102597.88;;;22.85;47.11
68863;BME280;73819;51.460;-1.012;2023-11-22T12:09:38;102607.42;;;21.29;48.67
68863;BME280;73819;51.460;-1.012;2023-11-22T12:12:06;102612.00;;;22.67;46.89
68863;BME280;73819;51.460;-1.012;2023-11-22T12:14:33;102614.76;;;22.51;46.64
68863;BME280;73819;51.460;-1.012;2023-11-22T12:17:00;102604.77;;;22.45;48.45
68863;BME280;73819;51.460;-1.012;2023-11-22T12:19:29;102597.42;;;22.17;48.55
68863;BME280;73819;51.460;-1.012;2023-11-22T12:21:56;102580.91;;;22.00;48.76
68863;BME280;73819;51.460;-1.012;2023-11-22T12:24:24;102574.38;;;22.35;47.89
68863;BME280;73819;51.460;-1.012;2023-11-22T12:26:51;102564.85;;;22.17;48.64
68863;BME280;73819;51.460;-1.012;2023-11-22T12:29:18;102557.92;;;22.23;48.07
68863;BME280;73819;51.460;-1.012;2023-11-22T12:31:46;102546.00;;;22.39;48.07
68863;BME280;73819;51.460;-1.012;2023-11-22T12:34:14;102546.91;;;22.47;47.89
68863;BME280;73819;51.460;-1.012;2023-11-22T12:36:42;102539.12;;;22.54;47.61
68863;BME280;73819;51.460;-1.012;2023-11-22T12:39:10;102534.62;;;22.47;47.85
68863;BME280;73819;51.460;-1.012;2023-11-22T12:41:42;102538.27;;;22.52;47.45